YCQ weather

Chetwynd Airport
Chetwynd, British Columbia, Canada

Public forecast

Using degrees Celsius for public forecast. Weather courtesy of forecast.io.

METAR (pilot weather report)

Report is more than 6 hours old.

Retrieved 2019/08/17 01:00 UTC (12 hours ago):

CYCQ 170100Z 25009KT 230V290 8SM -SHRA FEW030 BKN040TCU BKN070 BKN080 OVC180 13/08 A3005 RMK SC2TCU4AC1AS1CI1 AS TR HVIER PCPN N+SW-NW VIRGA ALQDS LAST STFD OBS/NEXT 171300Z SLP192 DENSITY ALT 2200FT

TAF (pilot weather forecast)

Closest forecast is Fort St John Airport, 44.5 nm (82.5 km) NE. Retrieved 2019/08/17 13:42 UTC (0 seconds ago):

TAF CYXJ 171239Z 1713/1801 13006KT P6SM BKN130 TEMPO 1713/1714 2SM BR PROB30 1713/1714 1/2SM FG FM171400 18006KT P6SM SCT040 OVC100 TEMPO 1714/1718 P6SM -SHRA BKN040 OVC100 FM171800 18008KT P6SM -RA OVC030 TEMPO 1718/1801 5SM -RA BR OVC020 RMK NXT FCST BY 171900Z